ADDS METAR Data INFO
IDs: Format: Raw Decoded Include TAF

Data at: 2340 UTC 15 Dec 2017

KCON 152251Z AUTO 00000KT 10SM BKN070 OVC080 M06/M13 A2987 RMK AO2 SLP124 T10561128
KCON 152151Z AUTO 10003KT 10SM OVC100 M05/M14 A2990 RMK AO2 SLP133 T10501139
KCON 152051Z AUTO 00000KT 10SM OVC110 M05/M13 A2993 RMK AO2 SLP142 T10501133 56015
KCON 151951Z AUTO 00000KT 10SM SCT120 M04/M14 A2995 RMK AO2 SLP148 T10441144
KCON 151851Z AUTO 00000KT 10SM CLR M04/M14 A2995 RMK AO2 SLP149 T10441139
KCON 151751Z AUTO 00000KT 10SM CLR M05/M13 A2998 RMK AO2 SLP157 T10501133 11050 21183 58031
KCON 151651Z AUTO 00000KT 10SM CLR M06/M13 A3001 RMK AO2 SLP170 T10611133
KCON 151551Z AUTO 00000KT 10SM CLR M08/M14 A3004 RMK AO2 SLP180 T10831144
KCON 151451Z AUTO 00000KT 10SM CLR M12/M15 A3007 RMK AO2 SLP189 T11221150 53014
KCON 151351Z AUTO 00000KT 10SM CLR M16/M17 A3005 RMK AO2 SLP184 T11561167
KCON 151251Z AUTO 00000KT 10SM CLR M17/M19 A3004 RMK AO2 SLP178 T11721194
KCON 151151Z AUTO 00000KT 10SM CLR M17/M20 A3003 RMK AO2 SLP176 T11721200 11106 21189 51010
KCON 151051Z AUTO 00000KT 10SM CLR M18/M21 A3001 RMK AO2 SLP170 T11781206
KCON 150951Z AUTO 00000KT 10SM CLR M16/M19 A3001 RMK AO2 SLP171 T11611189
KCON 150851Z AUTO 00000KT 10SM CLR M16/M19 A3000 RMK AO2 SLP165 T11561189 50013
KCON 150751Z AUTO 00000KT 10SM CLR M14/M18 A3000 RMK AO2 SLP166 T11441183
KCON 150651Z AUTO 03005KT 10SM CLR M13/M18 A2997 RMK AO2 SLP157 T11281183
KCON 150551Z AUTO 27004KT 10SM CLR M11/M17 A2996 RMK AO2 SLP151 T11061172 11072 21150 51015
KCON 150451Z AUTO 16004KT 10SM CLR M14/M17 A2995 RMK AO2 SLP150 T11441172 410391144
KCON 150351Z AUTO 00000KT 10SM CLR M11/M18 A2994 RMK AO2 SLP143 T11061183
KCON 150251Z AUTO 27006KT 10SM CLR M09/M19 A2991 RMK AO2 SLP136 T10891194 53026
KCON 150151Z AUTO 27008KT 10SM CLR M08/M19 A2988 RMK AO2 SLP125 T10831194
KCON 150051Z AUTO 28011KT 10SM CLR M08/M20 A2986 RMK AO2 SLP118 T10781200
KCON 142351Z AUTO 29010G16KT 260V320 10SM CLR M08/M19 A2984 RMK AO2 SLP110 T10781194 11039 21078 51040
KCON 142251Z AUTO 30009G15KT 10SM CLR M07/M19 A2980 RMK AO2 SLP098 T10721194
KCON 142151Z AUTO 27007KT 10SM CLR M06/M19 A2978 RMK AO2 SLP089 T10611194
KCON 142051Z AUTO 29009KT 10SM CLR M06/M17 A2972 RMK AO2 SLP069 T10561172 52033
KCON 141951Z AUTO 29014KT 10SM CLR M04/M17 A2969 RMK AO2 SLP059 T10441167
KCON 141851Z AUTO 29017G23KT 10SM CLR M04/M16 A2965 RMK AO2 SLP046 T10441156
KCON 141751Z AUTO 28013KT 10SM CLR M04/M16 A2962 RMK AO2 SLP037 T10441161 11039 21072 53008
KCON 141651Z AUTO 31011G22KT 10SM BKN095 M04/M15 A2960 RMK AO2 SLP031 T10441150
KCON 141551Z AUTO 31012KT 10SM SCT120 M05/M14 A2960 RMK AO2 SLP029 T10501144
KCON 141451Z AUTO 31007KT 10SM CLR M07/M14 A2960 RMK AO2 SLP028 T10671139 53005
KCON 141351Z AUTO 29005KT 10SM BKN100 M07/M13 A2959 RMK AO2 SLP025 T10721128
KCON 141251Z AUTO 26004KT 10SM BKN065 BKN080 OVC100 M07/M13 A2958 RMK AO2 SLP024 T10721133
KCON 141151Z AUTO 27008KT 10SM OVC050 M07/M13 A2958 RMK AO2 SLP023 T10721133 11072 21083 53013